sensor_id;sensor_type;location;lat;lon;timestamp;temperature;humidity
8862;DHT22;4799;50.996;4.754;2022-09-30T00:01:48;6.30;99.90
8862;DHT22;4799;50.996;4.754;2022-09-30T00:04:20;6.30;99.90
8862;DHT22;4799;50.996;4.754;2022-09-30T00:06:46;6.20;99.90
8862;DHT22;4799;50.996;4.754;2022-09-30T00:09:13;6.20;99.90
8862;DHT22;4799;50.996;4.754;2022-09-30T00:11:40;6.20;99.90
8862;DHT22;4799;50.996;4.754;2022-09-30T00:14:07;6.20;99.90
8862;DHT22;4799;50.996;4.754;2022-09-30T00:16:36;6.10;99.90
8862;DHT22;4799;50.996;4.754;2022-09-30T00:19:03;6.10;99.90
8862;DHT22;4799;50.996;4.754;2022-09-30T00:21:31;6.10;99.90
8862;DHT22;4799;50.996;4.754;2022-09-30T00:24:01;6.00;99.90
8862;DHT22;4799;50.996;4.754;2022-09-30T00:26:27;6.00;99.90
8862;DHT22;4799;50.996;4.754;2022-09-30T00:28:55;6.00;99.90
8862;DHT22;4799;50.996;4.754;2022-09-30T00:31:23;6.00;99.90
8862;DHT22;4799;50.996;4.754;2022-09-30T00:33:50;5.90;99.90
8862;DHT22;4799;50.996;4.754;2022-09-30T00:36:49;5.90;99.90
8862;DHT22;4799;50.996;4.754;2022-09-30T00:39:25;5.80;99.90
8862;DHT22;4799;50.996;4.754;2022-09-30T00:41:59;5.80;99.90
8862;DHT22;4799;50.996;4.754;2022-09-30T00:44:50;5.80;99.90
8862;DHT22;4799;50.996;4.754;2022-09-30T00:52:35;5.60;99.90
8862;DHT22;4799;50.996;4.754;2022-09-30T00:55:04;5.60;99.90
8862;DHT22;4799;50.996;4.754;2022-09-30T00:57:33;5.60;99.90
8862;DHT22;4799;50.996;4.754;2022-09-30T01:00:00;5.70;99.90
8862;DHT22;4799;50.996;4.754;2022-09-30T01:02:26;5.60;99.90
8862;DHT22;4799;50.996;4.754;2022-09-30T01:04:52;5.60;99.90
8862;DHT22;4799;50.996;4.754;2022-09-30T01:07:20;5.60;99.90
8862;DHT22;4799;50.996;4.754;2022-09-30T01:09:48;5.60;99.90
8862;DHT22;4799;50.996;4.754;2022-09-30T01:12:17;5.50;99.90
8862;DHT22;4799;50.996;4.754;2022-09-30T01:14:45;5.50;99.90
8862;DHT22;4799;50.996;4.754;2022-09-30T01:22:46;5.50;99.90
8862;DHT22;4799;50.996;4.754;2022-09-30T01:27:57;5.40;99.90
8862;DHT22;4799;50.996;4.754;2022-09-30T01:33:45;5.40;99.90
8862;DHT22;4799;50.996;4.754;2022-09-30T01:44:37;5.20;99.90
8862;DHT22;4799;50.996;4.754;2022-09-30T01:47:26;5.20;99.90
8862;DHT22;4799;50.996;4.754;2022-09-30T01:49:56;5.20;99.90
8862;DHT22;4799;50.996;4.754;2022-09-30T01:55:29;5.10;99.90
8862;DHT22;4799;50.996;4.754;2022-09-30T01:58:10;5.10;99.90
8862;DHT22;4799;50.996;4.754;2022-09-30T02:00:41;5.10;99.90
8862;DHT22;4799;50.996;4.754;2022-09-30T02:03:19;5.10;99.90
8862;DHT22;4799;50.996;4.754;2022-09-30T02:05:57;5.10;99.90
8862;DHT22;4799;50.996;4.754;2022-09-30T02:11:08;5.00;99.90
8862;DHT22;4799;50.996;4.754;2022-09-30T02:13:49;5.00;99.90
8862;DHT22;4799;50.996;4.754;2022-09-30T02:16:31;5.00;99.90
8862;DHT22;4799;50.996;4.754;2022-09-30T02:19:06;5.00;99.90
8862;DHT22;4799;50.996;4.754;2022-09-30T02:21:36;4.90;99.90
8862;DHT22;4799;50.996;4.754;2022-09-30T02:24:08;4.90;99.90
8862;DHT22;4799;50.996;4.754;2022-09-30T02:26:40;4.90;99.90
8862;DHT22;4799;50.996;4.754;2022-09-30T02:29:27;4.90;99.90
8862;DHT22;4799;50.996;4.754;2022-09-30T02:31:59;4.90;99.90
8862;DHT22;4799;50.996;4.754;2022-09-30T02:34:38;4.80;99.90
8862;DHT22;4799;50.996;4.754;2022-09-30T02:37:11;4.80;99.90
8862;DHT22;4799;50.996;4.754;2022-09-30T02:39:40;4.80;99.90
8862;DHT22;4799;50.996;4.754;2022-09-30T02:42:28;4.80;99.90
8862;DHT22;4799;50.996;4.754;2022-09-30T02:45:02;4.80;99.90
8862;DHT22;4799;50.996;4.754;2022-09-30T02:47:46;4.80;99.90
8862;DHT22;4799;50.996;4.754;2022-09-30T02:50:28;4.80;99.90
8862;DHT22;4799;50.996;4.754;2022-09-30T02:58:24;4.70;99.90
8862;DHT22;4799;50.996;4.754;2022-09-30T03:00:56;4.70;99.90
8862;DHT22;4799;50.996;4.754;2022-09-30T03:03:30;4.60;99.90
8862;DHT22;4799;50.996;4.754;2022-09-30T03:05:56;4.60;99.90
8862;DHT22;4799;50.996;4.754;2022-09-30T03:08:22;4.60;99.90
8862;DHT22;4799;50.996;4.754;2022-09-30T03:10:50;4.60;99.90
8862;DHT22;4799;50.996;4.754;2022-09-30T03:16:13;4.50;99.90
8862;DHT22;4799;50.996;4.754;2022-09-30T03:24:35;4.60;99.90
8862;DHT22;4799;50.996;4.754;2022-09-30T03:27:17;4.50;99.90
8862;DHT22;4799;50.996;4.754;2022-09-30T03:29:56;4.50;99.90
8862;DHT22;4799;50.996;4.754;2022-09-30T03:34:58;4.50;99.90
8862;DHT22;4799;50.996;4.754;2022-09-30T03:37:49;4.50;99.90
8862;DHT22;4799;50.996;4.754;2022-09-30T03:43:32;4.40;99.90
8862;DHT22;4799;50.996;4.754;2022-09-30T03:48:38;4.40;99.90
8862;DHT22;4799;50.996;4.754;2022-09-30T03:51:04;4.40;99.90
8862;DHT22;4799;50.996;4.754;2022-09-30T03:53:40;4.40;99.90
8862;DHT22;4799;50.996;4.754;2022-09-30T03:56:07;4.40;99.90
8862;DHT22;4799;50.996;4.754;2022-09-30T03:58:33;4.30;99.90
8862;DHT22;4799;50.996;4.754;2022-09-30T04:00:59;4.30;99.90
8862;DHT22;4799;50.996;4.754;2022-09-30T04:03:25;4.30;99.90
8862;DHT22;4799;50.996;4.754;2022-09-30T04:05:52;4.30;99.90
8862;DHT22;4799;50.996;4.754;2022-09-30T04:08:18;4.30;99.90
8862;DHT22;4799;50.996;4.754;2022-09-30T04:10:44;4.30;99.90
8862;DHT22;4799;50.996;4.754;2022-09-30T04:13:11;4.30;99.90
8862;DHT22;4799;50.996;4.754;2022-09-30T04:15:37;4.30;99.90
8862;DHT22;4799;50.996;4.754;2022-09-30T04:18:05;4.30;99.90
8862;DHT22;4799;50.996;4.754;2022-09-30T04:20:31;4.40;99.90
8862;DHT22;4799;50.996;4.754;2022-09-30T04:22:58;4.30;99.90
8862;DHT22;4799;50.996;4.754;2022-09-30T04:25:25;4.40;99.90
8862;DHT22;4799;50.996;4.754;2022-09-30T04:27:50;4.40;99.90
8862;DHT22;4799;50.996;4.754;2022-09-30T04:30:16;4.40;99.90
8862;DHT22;4799;50.996;4.754;2022-09-30T04:32:43;4.30;99.90
8862;DHT22;4799;50.996;4.754;2022-09-30T04:35:12;4.30;99.90
8862;DHT22;4799;50.996;4.754;2022-09-30T04:37:42;4.30;99.90
8862;DHT22;4799;50.996;4.754;2022-09-30T04:40:09;4.30;99.90
8862;DHT22;4799;50.996;4.754;2022-09-30T04:42:36;4.30;99.90
8862;DHT22;4799;50.996;4.754;2022-09-30T04:45:02;4.20;99.90
8862;DHT22;4799;50.996;4.754;2022-09-30T04:47:28;4.20;99.90
8862;DHT22;4799;50.996;4.754;2022-09-30T04:49:54;4.20;99.90
8862;DHT22;4799;50.996;4.754;2022-09-30T04:52:21;4.20;99.90
8862;DHT22;4799;50.996;4.754;2022-09-30T04:54:47;4.10;99.90
8862;DHT22;4799;50.996;4.754;2022-09-30T04:57:12;4.10;99.90
8862;DHT22;4799;50.996;4.754;2022-09-30T04:59:39;4.10;99.90
8862;DHT22;4799;50.996;4.754;2022-09-30T05:02:05;4.10;99.90
8862;DHT22;4799;50.996;4.754;2022-09-30T05:04:30;4.10;99.90
8862;DHT22;4799;50.996;4.754;2022-09-30T05:06:58;4.10;99.90
8862;DHT22;4799;50.996;4.754;2022-09-30T05:09:26;4.10;99.90
8862;DHT22;4799;50.996;4.754;2022-09-30T05:11:53;4.10;99.90
8862;DHT22;4799;50.996;4.754;2022-09-30T05:14:18;4.10;99.90
8862;DHT22;4799;50.996;4.754;2022-09-30T05:16:44;4.20;99.90
8862;DHT22;4799;50.996;4.754;2022-09-30T05:19:10;4.20;99.90
8862;DHT22;4799;50.996;4.754;2022-09-30T05:21:35;4.10;99.90
8862;DHT22;4799;50.996;4.754;2022-09-30T05:24:02;4.10;99.90
8862;DHT22;4799;50.996;4.754;2022-09-30T05:26:27;4.10;99.90
8862;DHT22;4799;50.996;4.754;2022-09-30T05:28:53;4.00;99.90
8862;DHT22;4799;50.996;4.754;2022-09-30T05:31:19;4.00;99.90
8862;DHT22;4799;50.996;4.754;2022-09-30T05:33:47;4.00;99.90
8862;DHT22;4799;50.996;4.754;2022-09-30T05:36:14;3.90;99.90
8862;DHT22;4799;50.996;4.754;2022-09-30T05:38:40;4.00;99.90
8862;DHT22;4799;50.996;4.754;2022-09-30T05:41:07;4.00;99.90
8862;DHT22;4799;50.996;4.754;2022-09-30T05:43:37;4.00;99.90
8862;DHT22;4799;50.996;4.754;2022-09-30T05:46:03;4.00;99.90
8862;DHT22;4799;50.996;4.754;2022-09-30T05:48:28;4.00;99.90
8862;DHT22;4799;50.996;4.754;2022-09-30T05:50:56;3.90;99.90
8862;DHT22;4799;50.996;4.754;2022-09-30T05:53:22;4.00;99.90
8862;DHT22;4799;50.996;4.754;2022-09-30T05:55:48;4.00;99.90
8862;DHT22;4799;50.996;4.754;2022-09-30T05:58:16;4.00;99.90
8862;DHT22;4799;50.996;4.754;2022-09-30T06:00:43;4.00;99.90
8862;DHT22;4799;50.996;4.754;2022-09-30T06:03:09;4.10;99.90
8862;DHT22;4799;50.996;4.754;2022-09-30T06:05:36;4.10;99.90
8862;DHT22;4799;50.996;4.754;2022-09-30T06:08:02;4.10;99.90
8862;DHT22;4799;50.996;4.754;2022-09-30T06:10:29;4.20;99.90
8862;DHT22;4799;50.996;4.754;2022-09-30T06:12:54;4.20;99.90
8862;DHT22;4799;50.996;4.754;2022-09-30T06:15:20;4.20;99.90
8862;DHT22;4799;50.996;4.754;2022-09-30T06:17:54;4.20;99.90
8862;DHT22;4799;50.996;4.754;2022-09-30T06:20:20;4.30;99.90
8862;DHT22;4799;50.996;4.754;2022-09-30T06:22:46;4.30;99.90
8862;DHT22;4799;50.996;4.754;2022-09-30T06:25:12;4.30;99.90
8862;DHT22;4799;50.996;4.754;2022-09-30T06:27:38;4.40;99.90
8862;DHT22;4799;50.996;4.754;2022-09-30T06:30:05;4.50;99.90
8862;DHT22;4799;50.996;4.754;2022-09-30T06:32:32;4.50;99.90
8862;DHT22;4799;50.996;4.754;2022-09-30T06:34:57;4.60;99.90
8862;DHT22;4799;50.996;4.754;2022-09-30T06:37:23;4.60;99.90
8862;DHT22;4799;50.996;4.754;2022-09-30T06:39:49;4.70;99.90
8862;DHT22;4799;50.996;4.754;2022-09-30T06:42:16;4.80;99.90
8862;DHT22;4799;50.996;4.754;2022-09-30T06:44:44;4.80;99.90
8862;DHT22;4799;50.996;4.754;2022-09-30T06:47:13;4.90;99.90
8862;DHT22;4799;50.996;4.754;2022-09-30T06:49:39;5.00;99.90
8862;DHT22;4799;50.996;4.754;2022-09-30T06:52:05;5.10;99.90
8862;DHT22;4799;50.996;4.754;2022-09-30T06:54:31;5.10;99.90
8862;DHT22;4799;50.996;4.754;2022-09-30T06:57:00;5.20;99.90
8862;DHT22;4799;50.996;4.754;2022-09-30T06:59:26;5.30;99.90
8862;DHT22;4799;50.996;4.754;2022-09-30T07:01:52;5.40;99.90
8862;DHT22;4799;50.996;4.754;2022-09-30T07:04:18;5.50;99.90
8862;DHT22;4799;50.996;4.754;2022-09-30T07:06:44;5.60;99.90
8862;DHT22;4799;50.996;4.754;2022-09-30T07:09:10;5.70;99.90
8862;DHT22;4799;50.996;4.754;2022-09-30T07:11:37;5.80;99.90
8862;DHT22;4799;50.996;4.754;2022-09-30T07:14:04;5.90;99.90
8862;DHT22;4799;50.996;4.754;2022-09-30T07:16:30;6.00;99.90
8862;DHT22;4799;50.996;4.754;2022-09-30T07:18:57;6.10;99.90
8862;DHT22;4799;50.996;4.754;2022-09-30T07:21:24;6.20;99.90
8862;DHT22;4799;50.996;4.754;2022-09-30T07:23:50;6.30;99.90
8862;DHT22;4799;50.996;4.754;2022-09-30T07:26:20;6.50;99.90
8862;DHT22;4799;50.996;4.754;2022-09-30T07:28:46;6.60;99.90
8862;DHT22;4799;50.996;4.754;2022-09-30T07:31:21;6.70;99.90
8862;DHT22;4799;50.996;4.754;2022-09-30T07:33:48;6.90;99.90
8862;DHT22;4799;50.996;4.754;2022-09-30T07:36:18;7.00;99.90
8862;DHT22;4799;50.996;4.754;2022-09-30T07:38:45;7.10;99.90
8862;DHT22;4799;50.996;4.754;2022-09-30T07:41:19;7.20;99.90
8862;DHT22;4799;50.996;4.754;2022-09-30T07:43:47;7.30;99.90
8862;DHT22;4799;50.996;4.754;2022-09-30T07:46:15;7.50;99.90
8862;DHT22;4799;50.996;4.754;2022-09-30T07:48:43;7.60;99.90
8862;DHT22;4799;50.996;4.754;2022-09-30T07:51:16;7.70;99.90
8862;DHT22;4799;50.996;4.754;2022-09-30T07:53:45;7.80;99.90
8862;DHT22;4799;50.996;4.754;2022-09-30T07:56:12;7.90;99.90
8862;DHT22;4799;50.996;4.754;2022-09-30T07:58:39;8.00;99.90
8862;DHT22;4799;50.996;4.754;2022-09-30T08:01:04;8.10;99.90
8862;DHT22;4799;50.996;4.754;2022-09-30T08:03:34;8.20;99.90
8862;DHT22;4799;50.996;4.754;2022-09-30T08:06:24;8.30;99.90
8862;DHT22;4799;50.996;4.754;2022-09-30T08:08:52;8.40;99.90
8862;DHT22;4799;50.996;4.754;2022-09-30T08:11:19;8.50;99.90
8862;DHT22;4799;50.996;4.754;2022-09-30T08:13:53;8.60;99.90
8862;DHT22;4799;50.996;4.754;2022-09-30T08:16:19;8.70;99.90
8862;DHT22;4799;50.996;4.754;2022-09-30T08:18:45;8.80;99.90
8862;DHT22;4799;50.996;4.754;2022-09-30T08:21:11;8.90;99.90
8862;DHT22;4799;50.996;4.754;2022-09-30T08:23:37;9.00;99.90
8862;DHT22;4799;50.996;4.754;2022-09-30T08:26:06;9.10;99.90
8862;DHT22;4799;50.996;4.754;2022-09-30T08:28:33;9.20;99.90
8862;DHT22;4799;50.996;4.754;2022-09-30T08:31:17;9.30;99.90
8862;DHT22;4799;50.996;4.754;2022-09-30T08:33:43;9.40;99.90
8862;DHT22;4799;50.996;4.754;2022-09-30T08:36:17;9.50;99.90
8862;DHT22;4799;50.996;4.754;2022-09-30T08:38:44;9.60;99.90
8862;DHT22;4799;50.996;4.754;2022-09-30T08:41:32;9.70;99.90
8862;DHT22;4799;50.996;4.754;2022-09-30T08:51:53;10.00;99.90
8862;DHT22;4799;50.996;4.754;2022-09-30T08:54:22;10.10;99.90
8862;DHT22;4799;50.996;4.754;2022-09-30T08:56:50;10.20;99.90
8862;DHT22;4799;50.996;4.754;2022-09-30T08:59:43;10.20;99.90
8862;DHT22;4799;50.996;4.754;2022-09-30T09:03:04;10.40;99.90
8862;DHT22;4799;50.996;4.754;2022-09-30T09:08:00;10.50;99.90
8862;DHT22;4799;50.996;4.754;2022-09-30T09:10:45;10.70;99.90
8862;DHT22;4799;50.996;4.754;2022-09-30T09:19:07;10.90;99.90
8862;DHT22;4799;50.996;4.754;2022-09-30T09:24:17;11.10;99.90
8862;DHT22;4799;50.996;4.754;2022-09-30T09:26:44;11.20;99.90
8862;DHT22;4799;50.996;4.754;2022-09-30T09:32:01;11.40;99.90
8862;DHT22;4799;50.996;4.754;2022-09-30T09:34:29;11.40;99.90
8862;DHT22;4799;50.996;4.754;2022-09-30T09:37:24;11.50;99.90
8862;DHT22;4799;50.996;4.754;2022-09-30T09:43:20;11.70;99.90
8862;DHT22;4799;50.996;4.754;2022-09-30T09:46:07;11.80;99.90
8862;DHT22;4799;50.996;4.754;2022-09-30T09:48:34;11.80;99.90
8862;DHT22;4799;50.996;4.754;2022-09-30T09:51:25;11.90;99.90
8862;DHT22;4799;50.996;4.754;2022-09-30T09:53:53;12.00;99.90
8862;DHT22;4799;50.996;4.754;2022-09-30T09:56:28;12.10;99.90
8862;DHT22;4799;50.996;4.754;2022-09-30T10:01:42;12.30;99.90
8862;DHT22;4799;50.996;4.754;2022-09-30T10:04:15;12.40;99.90
8862;DHT22;4799;50.996;4.754;2022-09-30T10:09:34;12.50;99.90
8862;DHT22;4799;50.996;4.754;2022-09-30T10:14:39;12.70;99.90
8862;DHT22;4799;50.996;4.754;2022-09-30T10:17:25;12.90;99.90
8862;DHT22;4799;50.996;4.754;2022-09-30T10:20:07;13.00;99.90
8862;DHT22;4799;50.996;4.754;2022-09-30T10:22:41;13.10;99.90
8862;DHT22;4799;50.996;4.754;2022-09-30T10:27:54;13.40;99.90
8862;DHT22;4799;50.996;4.754;2022-09-30T10:30:43;13.40;99.90
8862;DHT22;4799;50.996;4.754;2022-09-30T10:33:25;13.40;99.90
8862;DHT22;4799;50.996;4.754;2022-09-30T10:38:26;13.70;99.90
8862;DHT22;4799;50.996;4.754;2022-09-30T10:40:54;13.90;99.90
8862;DHT22;4799;50.996;4.754;2022-09-30T10:43:33;14.10;99.90
8862;DHT22;4799;50.996;4.754;2022-09-30T10:46:02;14.40;99.90
8862;DHT22;4799;50.996;4.754;2022-09-30T10:48:32;14.70;99.90
8862;DHT22;4799;50.996;4.754;2022-09-30T10:50:59;14.90;99.90
8862;DHT22;4799;50.996;4.754;2022-09-30T10:53:43;15.10;99.90
8862;DHT22;4799;50.996;4.754;2022-09-30T10:56:09;15.30;99.90
8862;DHT22;4799;50.996;4.754;2022-09-30T10:58:47;15.40;99.90
8862;DHT22;4799;50.996;4.754;2022-09-30T11:01:59;15.40;99.90
8862;DHT22;4799;50.996;4.754;2022-09-30T11:04:38;15.40;99.90
8862;DHT22;4799;50.996;4.754;2022-09-30T11:07:17;15.50;99.90
8862;DHT22;4799;50.996;4.754;2022-09-30T11:10:07;15.60;99.90
8862;DHT22;4799;50.996;4.754;2022-09-30T11:13:08;15.80;99.90
8862;DHT22;4799;50.996;4.754;2022-09-30T11:18:56;16.00;99.90
8862;DHT22;4799;50.996;4.754;2022-09-30T11:21:41;16.00;99.90
8862;DHT22;4799;50.996;4.754;2022-09-30T11:35:32;16.50;99.90
8862;DHT22;4799;50.996;4.754;2022-09-30T11:41:14;16.50;99.90
8862;DHT22;4799;50.996;4.754;2022-09-30T11:57:10;17.30;99.90
8862;DHT22;4799;50.996;4.754;2022-09-30T11:59:53;17.40;99.90
8862;DHT22;4799;50.996;4.754;2022-09-30T12:02:38;17.50;99.90
8862;DHT22;4799;50.996;4.754;2022-09-30T12:05:26;17.60;99.90
8862;DHT22;4799;50.996;4.754;2022-09-30T12:10:47;17.50;99.90
8862;DHT22;4799;50.996;4.754;2022-09-30T12:13:32;17.50;99.90
8862;DHT22;4799;50.996;4.754;2022-09-30T12:16:01;17.40;99.90
8862;DHT22;4799;50.996;4.754;2022-09-30T12:18:53;17.40;99.90
8862;DHT22;4799;50.996;4.754;2022-09-30T12:21:35;17.30;99.90
8862;DHT22;4799;50.996;4.754;2022-09-30T12:26:53;17.20;99.90
8862;DHT22;4799;50.996;4.754;2022-09-30T12:29:38;17.00;99.90
8862;DHT22;4799;50.996;4.754;2022-09-30T12:35:21;16.90;99.90
8862;DHT22;4799;50.996;4.754;2022-09-30T12:43:06;17.00;99.90
8862;DHT22;4799;50.996;4.754;2022-09-30T12:48:44;17.40;99.90
8862;DHT22;4799;50.996;4.754;2022-09-30T12:51:25;17.60;99.90
8862;DHT22;4799;50.996;4.754;2022-09-30T12:54:09;17.70;99.90
8862;DHT22;4799;50.996;4.754;2022-09-30T12:56:41;17.80;99.90
8862;DHT22;4799;50.996;4.754;2022-09-30T12:59:08;17.80;99.90
8862;DHT22;4799;50.996;4.754;2022-09-30T13:01:36;17.80;99.90
8862;DHT22;4799;50.996;4.754;2022-09-30T13:12:14;18.20;99.90
8862;DHT22;4799;50.996;4.754;2022-09-30T13:14:35;18.40;99.90
8862;DHT22;4799;50.996;4.754;2022-09-30T13:19:44;18.50;99.90
8862;DHT22;4799;50.996;4.754;2022-09-30T13:41:06;18.90;97.50
8862;DHT22;4799;50.996;4.754;2022-09-30T13:43:56;19.00;94.70
8862;DHT22;4799;50.996;4.754;2022-09-30T13:46:42;19.00;94.70
8862;DHT22;4799;50.996;4.754;2022-09-30T13:49:20;18.90;95.50
8862;DHT22;4799;50.996;4.754;2022-09-30T13:51:47;18.80;95.20
8862;DHT22;4799;50.996;4.754;2022-09-30T13:54:29;18.70;97.00
8862;DHT22;4799;50.996;4.754;2022-09-30T13:56:57;18.60;95.10
8862;DHT22;4799;50.996;4.754;2022-09-30T14:13:57;18.30;96.90
8862;DHT22;4799;50.996;4.754;2022-09-30T14:16:11;18.20;96.50
8862;DHT22;4799;50.996;4.754;2022-09-30T14:24:03;18.20;96.90
8862;DHT22;4799;50.996;4.754;2022-09-30T14:31:53;18.00;95.40
8862;DHT22;4799;50.996;4.754;2022-09-30T14:34:21;18.00;97.10
8862;DHT22;4799;50.996;4.754;2022-09-30T14:36:48;18.00;97.40
8862;DHT22;4799;50.996;4.754;2022-09-30T14:39:27;18.00;97.50
8862;DHT22;4799;50.996;4.754;2022-09-30T14:41:58;17.90;96.60
8862;DHT22;4799;50.996;4.754;2022-09-30T14:44:30;17.90;97.20
8862;DHT22;4799;50.996;4.754;2022-09-30T14:46:59;17.90;97.00
8862;DHT22;4799;50.996;4.754;2022-09-30T14:49:31;17.90;97.00
8862;DHT22;4799;50.996;4.754;2022-09-30T14:52:02;17.80;96.90
8862;DHT22;4799;50.996;4.754;2022-09-30T14:54:30;17.80;97.10
8862;DHT22;4799;50.996;4.754;2022-09-30T14:56:58;17.80;97.40
8862;DHT22;4799;50.996;4.754;2022-09-30T14:59:30;17.70;97.70
8862;DHT22;4799;50.996;4.754;2022-09-30T15:02:13;17.60;97.40
8862;DHT22;4799;50.996;4.754;2022-09-30T15:04:53;17.60;98.30
8862;DHT22;4799;50.996;4.754;2022-09-30T15:07:19;17.50;97.50
8862;DHT22;4799;50.996;4.754;2022-09-30T15:09:46;17.50;98.50
8862;DHT22;4799;50.996;4.754;2022-09-30T15:12:19;17.50;99.00
8862;DHT22;4799;50.996;4.754;2022-09-30T15:17:36;17.40;98.50
8862;DHT22;4799;50.996;4.754;2022-09-30T15:22:49;17.30;98.50
8862;DHT22;4799;50.996;4.754;2022-09-30T15:25:17;17.30;98.30
8862;DHT22;4799;50.996;4.754;2022-09-30T15:27:43;17.30;97.70
8862;DHT22;4799;50.996;4.754;2022-09-30T15:32:38;17.10;96.80
8862;DHT22;4799;50.996;4.754;2022-09-30T15:35:17;17.10;96.50
8862;DHT22;4799;50.996;4.754;2022-09-30T15:37:45;17.00;96.80
8862;DHT22;4799;50.996;4.754;2022-09-30T15:40:20;16.90;96.80
8862;DHT22;4799;50.996;4.754;2022-09-30T15:43:09;16.90;96.90
8862;DHT22;4799;50.996;4.754;2022-09-30T15:45:40;16.90;97.60
8862;DHT22;4799;50.996;4.754;2022-09-30T15:53:24;16.90;98.30
8862;DHT22;4799;50.996;4.754;2022-09-30T15:55:55;16.90;96.80
8862;DHT22;4799;50.996;4.754;2022-09-30T15:58:38;16.90;98.20
8862;DHT22;4799;50.996;4.754;2022-09-30T16:01:14;16.90;97.60
8862;DHT22;4799;50.996;4.754;2022-09-30T16:06:21;16.90;98.40
8862;DHT22;4799;50.996;4.754;2022-09-30T16:08:55;16.90;98.70
8862;DHT22;4799;50.996;4.754;2022-09-30T16:13:54;16.80;99.10
8862;DHT22;4799;50.996;4.754;2022-09-30T16:16:24;16.70;99.20
8862;DHT22;4799;50.996;4.754;2022-09-30T16:18:53;16.60;99.70
8862;DHT22;4799;50.996;4.754;2022-09-30T16:21:49;16.50;99.90
8862;DHT22;4799;50.996;4.754;2022-09-30T16:26:55;16.20;99.90
8862;DHT22;4799;50.996;4.754;2022-09-30T16:29:24;16.10;99.90
8862;DHT22;4799;50.996;4.754;2022-09-30T16:31:54;16.00;99.90
8862;DHT22;4799;50.996;4.754;2022-09-30T16:34:27;15.90;99.90
8862;DHT22;4799;50.996;4.754;2022-09-30T16:37:02;15.80;99.90
8862;DHT22;4799;50.996;4.754;2022-09-30T16:39:28;15.80;99.90
8862;DHT22;4799;50.996;4.754;2022-09-30T16:41:53;15.70;99.90
8862;DHT22;4799;50.996;4.754;2022-09-30T16:44:19;15.60;99.90
8862;DHT22;4799;50.996;4.754;2022-09-30T16:46:47;15.50;99.90
8862;DHT22;4799;50.996;4.754;2022-09-30T16:49:15;15.40;99.90
8862;DHT22;4799;50.996;4.754;2022-09-30T16:51:41;15.30;99.90
8862;DHT22;4799;50.996;4.754;2022-09-30T16:54:08;15.30;99.90
8862;DHT22;4799;50.996;4.754;2022-09-30T16:56:34;15.20;99.90
8862;DHT22;4799;50.996;4.754;2022-09-30T16:59:00;15.10;99.90
8862;DHT22;4799;50.996;4.754;2022-09-30T17:01:26;15.00;99.90
8862;DHT22;4799;50.996;4.754;2022-09-30T17:03:53;15.00;99.90
8862;DHT22;4799;50.996;4.754;2022-09-30T17:06:24;14.90;99.90
8862;DHT22;4799;50.996;4.754;2022-09-30T17:08:51;14.80;99.90
8862;DHT22;4799;50.996;4.754;2022-09-30T17:11:23;14.80;99.90
8862;DHT22;4799;50.996;4.754;2022-09-30T17:13:52;14.70;99.90
8862;DHT22;4799;50.996;4.754;2022-09-30T17:16:18;14.70;99.90
8862;DHT22;4799;50.996;4.754;2022-09-30T17:18:44;14.60;99.90
8862;DHT22;4799;50.996;4.754;2022-09-30T17:21:10;14.60;99.90
8862;DHT22;4799;50.996;4.754;2022-09-30T17:23:35;14.50;99.90
8862;DHT22;4799;50.996;4.754;2022-09-30T17:26:05;14.50;99.90
8862;DHT22;4799;50.996;4.754;2022-09-30T17:28:31;14.40;99.90
8862;DHT22;4799;50.996;4.754;2022-09-30T17:30:59;14.40;99.90
8862;DHT22;4799;50.996;4.754;2022-09-30T17:33:32;14.30;99.90
8862;DHT22;4799;50.996;4.754;2022-09-30T17:36:03;14.30;99.90
8862;DHT22;4799;50.996;4.754;2022-09-30T17:38:29;14.20;99.90
8862;DHT22;4799;50.996;4.754;2022-09-30T17:40:55;14.10;99.90
8862;DHT22;4799;50.996;4.754;2022-09-30T17:43:39;14.10;99.90
8862;DHT22;4799;50.996;4.754;2022-09-30T17:46:05;14.00;99.90
8862;DHT22;4799;50.996;4.754;2022-09-30T17:48:31;13.90;99.90
8862;DHT22;4799;50.996;4.754;2022-09-30T17:50:57;13.90;99.90
8862;DHT22;4799;50.996;4.754;2022-09-30T17:53:23;13.80;99.90
8862;DHT22;4799;50.996;4.754;2022-09-30T17:56:00;13.70;99.90
8862;DHT22;4799;50.996;4.754;2022-09-30T17:58:26;13.70;99.90
8862;DHT22;4799;50.996;4.754;2022-09-30T18:00:53;13.60;99.90
8862;DHT22;4799;50.996;4.754;2022-09-30T18:03:23;13.60;99.90
8862;DHT22;4799;50.996;4.754;2022-09-30T18:05:56;13.50;99.90
8862;DHT22;4799;50.996;4.754;2022-09-30T18:08:23;13.50;99.90
8862;DHT22;4799;50.996;4.754;2022-09-30T18:10:50;13.40;99.90
8862;DHT22;4799;50.996;4.754;2022-09-30T18:13:18;13.40;99.90
8862;DHT22;4799;50.996;4.754;2022-09-30T18:15:45;13.40;99.90
8862;DHT22;4799;50.996;4.754;2022-09-30T18:18:12;13.40;99.90
8862;DHT22;4799;50.996;4.754;2022-09-30T18:20:42;13.40;99.90
8862;DHT22;4799;50.996;4.754;2022-09-30T18:23:10;13.40;99.90
8862;DHT22;4799;50.996;4.754;2022-09-30T18:25:36;13.40;99.90
8862;DHT22;4799;50.996;4.754;2022-09-30T18:28:04;13.50;99.90
8862;DHT22;4799;50.996;4.754;2022-09-30T18:30:33;13.50;99.90
8862;DHT22;4799;50.996;4.754;2022-09-30T18:32:59;13.50;99.90
8862;DHT22;4799;50.996;4.754;2022-09-30T18:35:25;13.50;99.90
8862;DHT22;4799;50.996;4.754;2022-09-30T18:37:52;13.50;99.90
8862;DHT22;4799;50.996;4.754;2022-09-30T18:40:21;13.50;99.90
8862;DHT22;4799;50.996;4.754;2022-09-30T18:42:47;13.50;99.90
8862;DHT22;4799;50.996;4.754;2022-09-30T18:45:14;13.50;99.90
8862;DHT22;4799;50.996;4.754;2022-09-30T18:47:40;13.50;99.90
8862;DHT22;4799;50.996;4.754;2022-09-30T18:50:08;13.50;99.90
8862;DHT22;4799;50.996;4.754;2022-09-30T18:52:34;13.50;99.90
8862;DHT22;4799;50.996;4.754;2022-09-30T18:55:00;13.50;99.90
8862;DHT22;4799;50.996;4.754;2022-09-30T18:57:26;13.50;99.90
8862;DHT22;4799;50.996;4.754;2022-09-30T18:59:52;13.50;99.90
8862;DHT22;4799;50.996;4.754;2022-09-30T19:02:19;13.50;99.90
8862;DHT22;4799;50.996;4.754;2022-09-30T19:04:45;13.60;99.90
8862;DHT22;4799;50.996;4.754;2022-09-30T19:07:13;13.60;99.90
8862;DHT22;4799;50.996;4.754;2022-09-30T19:09:45;13.60;99.90
8862;DHT22;4799;50.996;4.754;2022-09-30T19:12:14;13.60;99.90
8862;DHT22;4799;50.996;4.754;2022-09-30T19:14:42;13.60;99.90
8862;DHT22;4799;50.996;4.754;2022-09-30T19:17:12;13.60;99.90
8862;DHT22;4799;50.996;4.754;2022-09-30T19:19:38;13.60;99.90
8862;DHT22;4799;50.996;4.754;2022-09-30T19:22:06;13.60;99.90
8862;DHT22;4799;50.996;4.754;2022-09-30T19:24:33;13.60;99.90
8862;DHT22;4799;50.996;4.754;2022-09-30T19:27:00;13.60;99.90
8862;DHT22;4799;50.996;4.754;2022-09-30T19:29:26;13.60;99.90
8862;DHT22;4799;50.996;4.754;2022-09-30T19:31:52;13.60;99.90
8862;DHT22;4799;50.996;4.754;2022-09-30T19:34:17;13.60;99.90
8862;DHT22;4799;50.996;4.754;2022-09-30T19:36:43;13.60;99.90
8862;DHT22;4799;50.996;4.754;2022-09-30T19:39:09;13.60;99.90
8862;DHT22;4799;50.996;4.754;2022-09-30T19:41:35;13.60;99.90
8862;DHT22;4799;50.996;4.754;2022-09-30T19:44:01;13.60;99.90
8862;DHT22;4799;50.996;4.754;2022-09-30T19:46:28;13.60;99.90
8862;DHT22;4799;50.996;4.754;2022-09-30T19:48:54;13.60;99.90
8862;DHT22;4799;50.996;4.754;2022-09-30T19:51:21;13.50;99.90
8862;DHT22;4799;50.996;4.754;2022-09-30T19:53:47;13.60;99.90
8862;DHT22;4799;50.996;4.754;2022-09-30T19:56:16;13.60;99.90
8862;DHT22;4799;50.996;4.754;2022-09-30T19:58:44;13.60;99.90
8862;DHT22;4799;50.996;4.754;2022-09-30T20:01:12;13.60;99.90
8862;DHT22;4799;50.996;4.754;2022-09-30T20:03:39;13.60;99.90
8862;DHT22;4799;50.996;4.754;2022-09-30T20:06:07;13.60;99.90
8862;DHT22;4799;50.996;4.754;2022-09-30T20:08:38;13.60;99.90